地図

経路データ

SID SEASON NUMBER BASIN SUBBASIN NAME ISO_TIME NATURE LAT LON WMO_WIND WMO_PRES WMO_AGENCY TRACK_TYPE DIST2LAND LANDFALL IFLAG USA_AGENCY USA_ATCF_ID USA_LAT USA_LON USA_RECORD USA_STATUS USA_WIND USA_PRES USA_SSHS USA_R34_NE USA_R34_SE USA_R34_SW USA_R34_NW USA_R50_NE USA_R50_SE USA_R50_SW USA_R50_NW USA_R64_NE USA_R64_SE USA_R64_SW USA_R64_NW USA_POCI USA_ROCI USA_RMW USA_EYE TOKYO_LAT TOKYO_LON TOKYO_GRADE TOKYO_WIND TOKYO_PRES TOKYO_R50_DIR TOKYO_R50_LONG TOKYO_R50_SHORT TOKYO_R30_DIR TOKYO_R30_LONG TOKYO_R30_SHORT TOKYO_LAND CMA_LAT CMA_LON CMA_CAT CMA_WIND CMA_PRES HKO_LAT HKO_LON HKO_CAT HKO_WIND HKO_PRES NEWDELHI_LAT NEWDELHI_LON NEWDELHI_GRADE NEWDELHI_WIND NEWDELHI_PRES NEWDELHI_CI NEWDELHI_DP NEWDELHI_POCI REUNION_LAT REUNION_LON REUNION_TYPE REUNION_WIND REUNION_PRES REUNION_TNUM REUNION_CI REUNION_RMW REUNION_R34_NE REUNION_R34_SE REUNION_R34_SW REUNION_R34_NW REUNION_R50_NE REUNION_R50_SE REUNION_R50_SW REUNION_R50_NW REUNION_R64_NE REUNION_R64_SE REUNION_R64_SW REUNION_R64_NW BOM_LAT BOM_LON BOM_TYPE BOM_WIND BOM_PRES BOM_TNUM BOM_CI BOM_RMW BOM_R34_NE BOM_R34_SE BOM_R34_SW BOM_R34_NW BOM_R50_NE BOM_R50_SE BOM_R50_SW BOM_R50_NW BOM_R64_NE BOM_R64_SE BOM_R64_SW BOM_R64_NW BOM_ROCI BOM_POCI BOM_EYE BOM_POS_METHOD BOM_PRES_METHOD NADI_LAT NADI_LON NADI_CAT NADI_WIND NADI_PRES WELLINGTON_LAT WELLINGTON_LON WELLINGTON_WIND WELLINGTON_PRES DS824_LAT DS824_LON DS824_STAGE DS824_WIND DS824_PRES TD9636_LAT TD9636_LON TD9636_STAGE TD9636_WIND TD9636_PRES TD9635_LAT TD9635_LON TD9635_WIND TD9635_PRES TD9635_ROCI NEUMANN_LAT NEUMANN_LON NEUMANN_CLASS NEUMANN_WIND NEUMANN_PRES MLC_LAT MLC_LON MLC_CLASS MLC_WIND MLC_PRES USA_GUST BOM_GUST BOM_GUST_PER REUNION_GUST REUNION_GUST_PER USA_SEAHGT USA_SEARAD_NE USA_SEARAD_SE USA_SEARAD_SW USA_SEARAD_NW STORM_SPEED STORM_DIR
2011337S13069 2012 88 SI MM NOT_NAMED 2011-12-02 12:00:00 TS -12.5000 69.3000 main 1501 1499 O_____________ jtwc_sh SH022012 -12.5000 69.3000 TD 20 1007 -1 2 332
2011337S13069 2012 88 SI MM NOT_NAMED 2011-12-02 15:00:00 TS -12.4075 69.2450 main 1499 1499 P_____________ SH022012 -12.4075 69.2450 TD 20 1007 -1 2 333
2011337S13069 2012 88 SI MM NOT_NAMED 2011-12-02 18:00:00 NR -12.3000 69.2000 main 1505 1505 O_____________ jtwc_sh SH022012 -12.3000 69.2000 DB 20 1007 -3 2 343
2011337S13069 2012 88 SI MM NOT_NAMED 2011-12-02 21:00:00 NR -12.1775 69.1775 main 1512 1512 P_____________ SH022012 -12.1775 69.1775 DB 22 1005 -3 2 8
2011337S13069 2012 88 SI MM NOT_NAMED 2011-12-03 00:00:00 TS -12.1000 69.2000 main 1519 1519 O_____________ jtwc_sh SH022012 -12.1000 69.2000 TD 25 1004 -1 1 63
2011337S13069 2012 88 SI MM NOT_NAMED 2011-12-03 03:00:00 TS -12.1200 69.2925 main 1528 1521 P_____________ SH022012 -12.1200 69.2925 TD 25 1004 -1 2 117
2011337S13069 2012 88 SI MM NOT_NAMED 2011-12-03 06:00:00 TS -12.2000 69.4000 main 1529 1523 O_____________ jtwc_sh SH022012 -12.2000 69.4000 TD 25 1004 -1 1006 200 40 2 136
2011337S13069 2012 88 SI MM NOT_NAMED 2011-12-03 09:00:00 TS -12.2700 69.4426 main 1523 1523 P_____________ SH022012 -12.2700 69.4426 TD 25 1004 -1 1006 195 40 2 153
2011337S13069 2012 88 SI MM NOT_NAMED 2011-12-03 12:00:00 TS -12.4000 69.5000 main 1525 1518 O_____________ jtwc_sh SH022012 -12.4000 69.5000 TD 25 1004 -1 1006 190 40 4 153
2011337S13069 2012 88 SI MM NOT_NAMED 2011-12-03 15:00:00 TS -12.6050 69.6201 main 1521 1517 P_____________ SH022012 -12.6050 69.6201 TD 27 1002 -1 1006 190 42 6 150
2011337S13069 2012 88 SI MM NOT_NAMED 2011-12-03 18:00:00 TS -12.9000 69.8000 main 1520 1514 O_____________ jtwc_sh SH022012 -12.9000 69.8000 TD 30 1000 -1 1006 190 45 8 148
2011337S13069 2012 88 SI MM NOT_NAMED 2011-12-03 21:00:00 TS -13.2926 70.0648 main 1523 1515 P_____________ SH022012 -13.2926 70.0648 TD 30 1000 -1 1006 187 45 9 149
2011337S13069 2012 88 SI MM NOT_NAMED 2011-12-04 00:00:00 TS -13.7000 70.3000 main 1519 1512 O_____________ jtwc_sh SH022012 -13.7000 70.3000 TD 30 1000 -1 1006 185 45 8 158
2011337S13069 2012 88 SI MM NOT_NAMED 2011-12-04 03:00:00 TS -14.0374 70.3801 main 1512 1496 P_____________ SH022012 -14.0374 70.3801 TD 27 1001 -1 1006 180 42 6 171
2011337S13069 2012 88 SI MM NOT_NAMED 2011-12-04 06:00:00 TS -14.3000 70.4000 main 1496 1490 O_____________ jtwc_sh SH022012 -14.3000 70.4000 TD 25 1003 -1 1006 175 40 4 170
2011337S13069 2012 88 SI MM NOT_NAMED 2011-12-04 09:00:00 TS -14.4725 70.4575 main 1495 1489 P_____________ SH022012 -14.4725 70.4575 TD 25 1003 -1 3 163
2011337S13069 2012 88 SI MM NOT_NAMED 2011-12-04 12:00:00 TS -14.6000 70.5000 main 1489 1484 O_____________ jtwc_sh SH022012 -14.6000 70.5000 TD 25 1004 -1 3 167
2011337S13069 2012 88 SI MM NOT_NAMED 2011-12-04 15:00:00 TS -14.7425 70.5150 main 1484 1474 P_____________ SH022012 -14.7425 70.5150 TD 25 1004 -1 3 0
2011337S13069 2012 88 SI MM NOT_NAMED 2011-12-04 18:00:00 TS -14.9000 70.5000 main 1474 1465 O_____________ jtwc_sh SH022012 -14.9000 70.5000 TD 25 1004 -1 3 187
2011337S13069 2012 88 SI MM NOT_NAMED 2011-12-04 21:00:00 TS -15.0850 70.4650 main 1465 1446 P_____________ SH022012 -15.0850 70.4650 TD 27 1002 -1 4 193
2011337S13069 2012 88 SI MM NOT_NAMED 2011-12-05 00:00:00 TS -15.3000 70.4000 main 1446 1427 O_____________ jtwc_sh SH022012 -15.3000 70.4000 TD 30 1000 -1 5 199
2011337S13069 2012 88 SI MM NOT_NAMED 2011-12-05 03:00:00 TS -15.5425 70.3075 main 1427 1403 P_____________ SH022012 -15.5425 70.3075 TD 30 1000 -1 5 201
2011337S13069 2012 88 SI MM NOT_NAMED 2011-12-05 06:00:00 TS -15.8000 70.2000 main 1403 1381 O_____________ jtwc_sh SH022012 -15.8000 70.2000 TD 30 1000 -1 6 200
2011337S13069 2012 88 SI MM NOT_NAMED 2011-12-05 09:00:00 TS -16.0650 70.1075 main 1381 1363 P_____________ SH022012 -16.0650 70.1075 TD 30 1000 -1 5 201
2011337S13069 2012 88 SI MM NOT_NAMED 2011-12-05 12:00:00 TS -16.3000 70.0000 main 1363 1345 O_____________ jtwc_sh SH022012 -16.3000 70.0000 TD 30 1000 -1 5 212
2011337S13069 2012 88 SI MM NOT_NAMED 2011-12-05 15:00:00 TS -16.4650 69.8500 main 1335 1321 P_____________ SH022012 -16.4650 69.8500 TD 30 1000 -1 4 224
2011337S13069 2012 88 SI MM NOT_NAMED 2011-12-05 18:00:00 TS -16.6000 69.7000 main 1321 1303 O_____________ jtwc_sh SH022012 -16.6000 69.7000 TD 30 1000 -1 4 217
2011337S13069 2012 88 SI MM NOT_NAMED 2011-12-05 21:00:00 TS -16.7725 69.6075 main 1303 1290 P_____________ SH022012 -16.7725 69.6075 TD 32 998 -1 4 212
2011337S13069 2012 88 SI MM NOT_NAMED 2011-12-06 00:00:00 TS -16.9000 69.5000 main 1290 1269 O_____________ jtwc_sh SH022012 -16.9000 69.5000 TS 35 996 0 1005 200 40 3 241
2011337S13069 2012 88 SI MM NOT_NAMED 2011-12-06 03:00:00 TS -16.9225 69.3225 main 1269 1249 P_____________ SH022012 -16.9225 69.3225 TS 35 996 0 1005 200 40 4 270
2011337S13069 2012 88 SI MM NOT_NAMED 2011-12-06 06:00:00 TS -16.9000 69.1000 main 1249 1229 O_____________ jtwc_sh SH022012 -16.9000 69.1000 TS 35 996 0 1005 200 40 5 269
2011337S13069 2012 88 SI MM NOT_NAMED 2011-12-06 09:00:00 TS -16.9300 68.8426 main 1219 1199 P_____________ SH022012 -16.9300 68.8426 TS 35 996 0 1005 200 42 5 270
2011337S13069 2012 88 SI MM NOT_NAMED 2011-12-06 12:00:00 TS -16.9000 68.6000 main 1199 1187 O_____________ jtwc_sh SH022012 -16.9000 68.6000 TS 35 996 0 1005 200 45 4 299
2011337S13069 2012 88 SI MM NOT_NAMED 2011-12-06 15:00:00 TS -16.7150 68.4349 main 1187 1182 P_____________ SH022012 -16.7150 68.4349 TS 32 998 -1 1004 195 42 5 324
2011337S13069 2012 88 SI MM NOT_NAMED 2011-12-06 18:00:00 TS -16.5000 68.3000 main 1186 1180 O_____________ jtwc_sh SH022012 -16.5000 68.3000 TD 30 1000 -1 1004 190 40 4 322
2011337S13069 2012 88 SI MM NOT_NAMED 2011-12-06 21:00:00 TS -16.3775 68.1575 main 1180 1165 P_____________ SH022012 -16.3775 68.1575 TD 30 1000 -1 1004 190 40 4 305
2011337S13069 2012 88 SI MM NOT_NAMED 2011-12-07 00:00:00 TS -16.3000 68.0000 main 1165 1146 O_____________ jtwc_sh SH022012 -16.3000 68.0000 TD 30 1000 -1 1004 190 40 4 290
2011337S13069 2012 88 SI MM NOT_NAMED 2011-12-07 03:00:00 TS -16.2500 67.7925 main 1146 1131 P_____________ SH022012 -16.2500 67.7925 TD 30 1000 -1 1005 190 40 4 285
2011337S13069 2012 88 SI MM NOT_NAMED 2011-12-07 06:00:00 TS -16.2000 67.6000 main 1131 1126 O_____________ jtwc_sh SH022012 -16.2000 67.6000 TD 30 1000 -1 1006 190 40 3 301
2011337S13069 2012 88 SI MM NOT_NAMED 2011-12-07 09:00:00 TS -16.0775 67.4925 main 1126 1122 P_____________ SH022012 -16.0775 67.4925 TD 30 1000 -1 1006 190 40 3 316
2011337S13069 2012 88 SI MM NOT_NAMED 2011-12-07 12:00:00 TS -16.0000 67.4000 main 1122 1112 O_____________ jtwc_sh SH022012 -16.0000 67.4000 TD 30 1000 -1 1006 190 40 2 278
2011337S13069 2012 88 SI MM NOT_NAMED 2011-12-07 15:00:00 TS -16.0475 67.2650 main 1112 1083 P_____________ SH022012 -16.0475 67.2650 TD 27 1002 -1 1006 190 40 4 235
2011337S13069 2012 88 SI MM NOT_NAMED 2011-12-07 18:00:00 TS -16.2000 67.1000 main 1083 1049 O_____________ jtwc_sh SH022012 -16.2000 67.1000 TD 25 1004 -1 1006 190 40 5 218
2011337S13069 2012 88 SI MM NOT_NAMED 2011-12-07 21:00:00 TS -16.4725 66.9152 main 1049 1021 P_____________ SH022012 -16.4725 66.9152 TD 25 1004 -1 1006 185 40 6 218
2011337S13069 2012 88 SI MM NOT_NAMED 2011-12-08 00:00:00 TS -16.7000 66.7000 main 1021 992 O_____________ jtwc_sh SH022012 -16.7000 66.7000 TD 25 1004 -1 1006 180 40 5 243
2011337S13069 2012 88 SI MM NOT_NAMED 2011-12-08 03:00:00 TS -16.7176 66.4048 main 992 972 P_____________ SH022012 -16.7176 66.4048 TD 25 1004 -1 1006 182 40 5 282
2011337S13069 2012 88 SI MM NOT_NAMED 2011-12-08 06:00:00 TS -16.6000 66.2000 main 977 977 O_____________ jtwc_sh SH022012 -16.6000 66.2000 TD 25 1004 -1 1006 185 40 4 335
2011337S13069 2012 88 SI MM NOT_NAMED 2011-12-08 09:00:00 TS -16.3590 66.2320 main 987 987 P_____________ SH022012 -16.3590 66.2320 TD 25 1004 -1 1005 180 40 4 26
2011337S13069 2012 88 SI MM NOT_NAMED 2011-12-08 12:00:00 TS -16.2000 66.4000 main 1017 1017 O_____________ jtwc_sh SH022012 -16.2000 66.4000 TD 25 1004 -1 1005 175 40 4 81
2011337S13069 2012 88 SI MM NOT_NAMED 2011-12-08 15:00:00 TS -16.3000 66.6000 main 1030 1020 V_____________ jtwc_sh SH022012 -16.3000 66.6000 TD 25 1004 -1 1005 175 40 4 147
2011337S13069 2012 88 SI MM NOT_NAMED 2011-12-08 18:00:00 TS -16.5000 66.6000 main 1020 1001 O_____________ jtwc_sh SH022012 -16.5000 66.6000 TD 25 1004 -1 1005 175 40 3 218
2011337S13069 2012 88 SI MM NOT_NAMED 2011-12-08 21:00:00 TS -16.5410 66.4011 main 1001 973 P_____________ SH022012 -16.5410 66.4011 TD 25 1004 -1 5 270
2011337S13069 2012 88 SI MM NOT_NAMED 2011-12-09 00:00:00 TS -16.5000 66.1000 main 973 954 O_____________ jtwc_sh SH022012 -16.5000 66.1000 TD 25 1004 -1 5 274
2011337S13069 2012 88 SI MM NOT_NAMED 2011-12-09 03:00:00 TS -16.4999 65.8575 main 954 926 P_____________ SH022012 -16.4999 65.8575 TD 25 1004 -1 5 270
2011337S13069 2012 88 SI MM NOT_NAMED 2011-12-09 06:00:00 TS -16.5000 65.6000 main 926 897 O_____________ jtwc_sh SH022012 -16.5000 65.6000 TD 25 1004 -1 1008 180 40 5 270
2011337S13069 2012 88 SI MM NOT_NAMED 2011-12-09 09:00:00 TS -16.5000 65.3075 main 897 869 P_____________ SH022012 -16.5000 65.3075 TD 25 1004 -1 6 270
2011337S13069 2012 88 SI MM NOT_NAMED 2011-12-09 12:00:00 TS -16.5000 65.0000 main 869 841 O_____________ jtwc_sh SH022012 -16.5000 65.0000 TD 25 1004 -1 6 270
2011337S13069 2012 88 SI MM NOT_NAMED 2011-12-09 15:00:00 TS -16.4998 64.7225 main 841 813 P_____________ SH022012 -16.4998 64.7225 TD 25 1004 -1 6 270
2011337S13069 2012 88 SI MM NOT_NAMED 2011-12-09 18:00:00 TS -16.5000 64.4000 main 813 777 O_____________ jtwc_sh SH022012 -16.5000 64.4000 TD 25 1004 -1 1008 180 40 7 269
2011337S13069 2012 88 SI MM NOT_NAMED 2011-12-09 21:00:00 TS -16.5076 63.9575 main 777 732 P_____________ SH022012 -16.5076 63.9575 TD 25 1004 -1 1008 180 40 9 270
2011337S13069 2012 88 SI MM NOT_NAMED 2011-12-10 00:00:00 TS -16.5000 63.5000 main 732 697 O_____________ jtwc_sh SH022012 -16.5000 63.5000 TD 25 1004 -1 1008 180 40 30 8 274
2011337S13069 2012 88 SI MM NOT_NAMED 2011-12-10 03:00:00 TS -16.4499 63.1274 main 704 679 P_____________ SH022012 -16.4499 63.1274 TD 25 1004 -1 7 278
2011337S13069 2012 88 SI MM NOT_NAMED 2011-12-10 06:00:00 TS -16.4000 62.8000 main 679 654 O_____________ jtwc_sh SH022012 -16.4000 62.8000 TD 25 1004 -1 6 274
2011337S13069 2012 88 SI MM NOT_NAMED 2011-12-10 09:00:00 TS -16.4074 62.4926 main 654 630 P_____________ SH022012 -16.4074 62.4926 TD 22 1005 -1 6 270
2011337S13069 2012 88 SI MM NOT_NAMED 2011-12-10 12:00:00 NR -16.4000 62.2000 main 630 614 O_____________ jtwc_sh SH022012 -16.4000 62.2000 DB 20 1007 -3 6 280
2011337S13069 2012 88 SI MM NOT_NAMED 2011-12-10 15:00:00 NR -16.3075 61.8849 main 614 599 P_____________ SH022012 -16.3075 61.8849 DB 20 1007 -3 6 289
2011337S13069 2012 88 SI MM NOT_NAMED 2011-12-10 18:00:00 NR -16.2000 61.6000 main 600 585 O_____________ jtwc_sh SH022012 -16.2000 61.6000 DB 20 1007 -3 5 289
2011337S13069 2012 88 SI MM NOT_NAMED 2011-12-10 21:00:00 NR -16.1424 61.3851 main 594 580 P_____________ SH022012 -16.1424 61.3851 DB 20 1007 -3 4 285
2011337S13069 2012 88 SI MM NOT_NAMED 2011-12-11 00:00:00 NR -16.1000 61.2000 main 580 573 O_____________ jtwc_sh SH022012 -16.1000 61.2000 DB 20 1007 -3 3 291
2011337S13069 2012 88 SI MM NOT_NAMED 2011-12-11 03:00:00 NR -16.0198 61.0448 main 576 563 P_____________ SH022012 -16.0198 61.0448 DB 20 1007 -3 4 285
2011337S13069 2012 88 SI MM NOT_NAMED 2011-12-11 06:00:00 NR -16.0000 60.8000 main 563 530 O_____________ jtwc_sh SH022012 -16.0000 60.8000 DB 20 1007 -3 7 259
2011337S13069 2012 88 SI MM NOT_NAMED 2011-12-11 09:00:00 NR -16.1500 60.3604 main 521 479 P_____________ SH022012 -16.1500 60.3604 DB 20 1007 -3 10 253
2011337S13069 2012 88 SI MM NOT_NAMED 2011-12-11 12:00:00 NR -16.3000 59.8000 main 479 453 O_____________ jtwc_sh SH022012 -16.3000 59.8000 DB 20 1007 -3 11 262
2011337S13069 2012 88 SI MM NOT_NAMED 2011-12-11 15:00:00 NR -16.3003 59.2046 main 453 443 P_____________ SH022012 -16.3003 59.2046 DB 20 1007 -3 12 275
2011337S13069 2012 88 SI MM NOT_NAMED 2011-12-11 18:00:00 TS -16.2000 58.6000 main 446 O_____________ jtwc_sh SH022012 -16.2000 58.6000 TD 20 1007 -1 12 280

IBTrACS Databaseについて

本データベースは、米国NOAAが公開する1842年以降の世界の熱帯低気圧のベストトラックデータアーカイブInternational Best Track Archive for Climate Stewardship (IBTrACS)を、ウェブで閲覧しやすい形式に変換したものです。

最終更新日:2021-12-01